Time;durP1;ratioP1;P1;durP2;ratioP2;P2;SDS_P1;SDS_P2;PMS_P1;PMS_P2;Temp;Humidity;BMP_temperature;BMP_pressure;BME280_temperature;BME280_humidity;BME280_pressure;Samples;Min_cycle;Max_cycle;Signal;HPM_P1;HPM_P2
2021/03/03 00:01:14;;;;;;;41.23;22.65;;;;;;;6.56;59.64;101581.52;1787184;79;21105;-65
2021/03/03 00:03:42;;;;;;;42.53;23.10;;;;;;;6.64;59.61;101590.84;1773652;80;21113;-63
2021/03/03 00:06:09;;;;;;;41.02;22.05;;;;;;;6.64;59.64;101589.53;1756595;82;21115;-64
2021/03/03 00:08:37;;;;;;;40.60;21.52;;;;;;;6.58;59.56;101581.12;1765838;80;21524;-63
2021/03/03 00:11:05;;;;;;;36.93;19.42;;;;;;;6.59;59.56;101587.22;1773852;80;21082;-59
2021/03/03 00:13:32;;;;;;;39.73;21.20;;;;;;;6.55;59.51;101583.66;1789037;80;21114;-64
2021/03/03 00:16:00;;;;;;;37.20;20.15;;;;;;;6.60;59.31;101585.06;1789267;80;21352;-58
2021/03/03 00:18:28;;;;;;;37.08;19.48;;;;;;;6.55;59.17;101585.84;1771743;80;21097;-58
2021/03/03 00:20:55;;;;;;;33.50;17.87;;;;;;;6.49;59.38;101579.59;1758413;80;21100;-58
2021/03/03 00:23:22;;;;;;;34.43;18.80;;;;;;;6.47;59.28;101578.67;1753612;80;21098;-58
2021/03/03 00:25:50;;;;;;;35.35;18.55;;;;;;;6.54;59.05;101585.82;1751883;80;21104;-64
2021/03/03 00:28:17;;;;;;;33.63;18.27;;;;;;;6.50;58.94;101577.00;1777990;80;21136;-63
2021/03/03 00:30:45;;;;;;;34.60;18.30;;;;;;;6.43;58.96;101578.13;1782857;79;21119;-58
2021/03/03 00:33:13;;;;;;;33.48;17.87;;;;;;;6.42;59.07;101582.46;1783535;80;21011;-63
2021/03/03 00:35:41;;;;;;;30.48;16.52;;;;;;;6.46;59.20;101588.23;1779841;80;21092;-64
2021/03/03 00:38:08;;;;;;;32.78;17.55;;;;;;;6.50;59.30;101583.97;1752742;82;20982;-64
2021/03/03 00:40:36;;;;;;;34.80;17.90;;;;;;;6.58;59.25;101578.51;1760134;80;21070;-58
2021/03/03 00:43:04;;;;;;;31.60;17.42;;;;;;;6.65;59.18;101586.93;1783252;80;21067;-58
2021/03/03 00:45:32;;;;;;;30.20;15.98;;;;;;;6.69;59.03;101586.59;1768328;79;21061;-58
2021/03/03 00:47:59;;;;;;;32.00;17.05;;;;;;;6.73;59.13;101585.82;1752651;81;21042;-58
2021/03/03 00:50:27;;;;;;;31.02;16.55;;;;;;;6.80;58.92;101589.05;1753713;80;21086;-58
2021/03/03 00:52:56;;;;;;;28.50;16.07;;;;;;;6.80;58.80;101594.69;1751013;82;21034;-63
2021/03/03 00:55:26;;;;;;;33.25;18.80;;;;;;;6.92;58.80;101601.52;1759650;80;21123;-58
2021/03/03 00:57:54;;;;;;;35.15;18.57;;;;;;;6.96;58.75;101606.37;1752696;82;21058;-58
2021/03/03 01:00:25;;;;;;;33.90;18.42;;;;;;;6.93;58.71;101601.98;1763559;80;21059;-58
2021/03/03 01:02:54;;;;;;;31.02;16.73;;;;;;;6.93;58.79;101605.91;1781970;80;20976;-58
2021/03/03 01:05:22;;;;;;;36.77;19.45;;;;;;;7.00;58.64;101608.22;1752861;80;21135;-58
2021/03/03 01:07:51;;;;;;;29.80;17.17;;;;;;;6.97;58.65;101613.38;1755787;80;21038;-58
2021/03/03 01:10:19;;;;;;;33.92;19.25;;;;;;;6.94;58.60;101608.98;1783902;80;21630;-64
2021/03/03 01:12:48;;;;;;;32.30;16.45;;;;;;;6.90;58.44;101602.31;1772279;79;21002;-64
2021/03/03 01:15:17;;;;;;;34.10;18.15;;;;;;;6.82;58.45;101604.36;1752540;80;21097;-63
2021/03/03 01:17:45;;;;;;;32.83;17.87;;;;;;;6.75;57.82;101607.67;1752603;82;21001;-64
2021/03/03 01:20:14;;;;;;;31.23;17.23;;;;;;;6.75;57.79;101608.08;1781110;80;21090;-58
2021/03/03 01:22:41;;;;;;;29.40;16.85;;;;;;;6.69;57.73;101608.40;1757441;80;21086;-64
2021/03/03 01:25:11;;;;;;;30.25;18.17;;;;;;;6.61;57.63;101606.05;1746434;81;21102;-64
2021/03/03 01:27:39;;;;;;;31.30;16.75;;;;;;;6.52;57.59;101609.31;1746009;82;21062;-59
2021/03/03 01:30:08;;;;;;;33.18;17.30;;;;;;;6.49;57.47;101607.05;1744631;82;21113;-64
2021/03/03 01:32:35;;;;;;;29.67;16.23;;;;;;;6.33;57.57;101609.72;1718963;82;21078;-64
2021/03/03 01:35:04;;;;;;;28.35;15.23;;;;;;;6.22;57.65;101612.05;1680239;84;21135;-58
2021/03/03 01:37:32;;;;;;;31.73;17.25;;;;;;;6.05;57.81;101611.20;1690323;84;21032;-58
2021/03/03 01:39:59;;;;;;;29.95;15.50;;;;;;;6.00;57.91;101610.20;1701877;84;21103;-58
2021/03/03 01:42:27;;;;;;;31.87;16.95;;;;;;;5.93;57.81;101610.84;1708673;84;21170;-64
2021/03/03 01:44:55;;;;;;;27.52;15.63;;;;;;;5.82;57.95;101619.70;1684636;84;21153;-58
2021/03/03 01:47:22;;;;;;;36.05;18.42;;;;;;;5.64;58.32;101615.73;1686055;84;21084;-62
2021/03/03 01:49:50;;;;;;;31.65;17.15;;;;;;;5.50;58.54;101622.31;1685978;84;21173;-64
2021/03/03 01:52:17;;;;;;;32.45;16.70;;;;;;;5.41;58.77;101624.21;1692806;84;21032;-64
2021/03/03 01:54:45;;;;;;;32.95;16.95;;;;;;;5.33;58.99;101626.61;1708885;84;21094;-64
2021/03/03 01:57:12;;;;;;;29.55;16.77;;;;;;;5.33;59.07;101624.41;1707190;84;21076;-58
2021/03/03 01:59:42;;;;;;;32.25;17.67;;;;;;;5.25;59.21;101624.62;1680379;84;21088;-58
2021/03/03 02:02:09;;;;;;;30.77;16.65;;;;;;;5.26;59.18;101625.96;1680359;85;21166;-64
2021/03/03 02:04:37;;;;;;;33.00;16.15;;;;;;;5.28;59.02;101627.33;1680252;85;21147;-65
2021/03/03 02:07:24;;;;;;;31.68;17.62;;;;;;;5.20;59.27;101624.06;1686079;84;21115;-61
2021/03/03 02:10:05;;;;;;;29.35;16.12;;;;;;;5.20;59.47;101621.45;1844552;77;22189;-62
2021/03/03 02:12:38;;;;;;;31.52;17.48;;;;;;;5.14;59.36;101625.59;1760723;81;21257;-58
2021/03/03 02:15:07;;;;;;;33.83;17.55;;;;;;;5.08;59.49;101630.21;1765569;80;21162;-64
2021/03/03 02:17:34;;;;;;;33.23;16.87;;;;;;;5.04;59.66;101627.05;1786978;80;21162;-63
2021/03/03 02:20:09;;;;;;;35.92;18.00;;;;;;;5.06;59.60;101630.19;1776104;80;21165;-58
2021/03/03 02:23:05;;;;;;;35.38;17.73;;;;;;;5.02;59.59;101632.23;1761872;81;21147;-58
2021/03/03 02:25:34;;;;;;;32.63;16.73;;;;;;;4.97;59.80;101628.98;1772161;80;21147;-58
2021/03/03 02:28:05;;;;;;;31.87;17.45;;;;;;;4.91;59.82;101633.61;1782121;80;21305;-58
2021/03/03 02:30:32;;;;;;;33.08;16.97;;;;;;;4.90;59.98;101636.63;1702527;83;21323;-58
2021/03/03 02:33:00;;;;;;;29.75;16.55;;;;;;;4.90;59.91;101635.32;1699225;84;21179;-63
2021/03/03 02:35:28;;;;;;;34.43;17.60;;;;;;;4.86;59.95;101639.10;1737261;81;21218;-64
2021/03/03 02:37:58;;;;;;;34.60;17.17;;;;;;;4.81;60.05;101637.66;1732187;81;21178;-64
2021/03/03 02:40:28;;;;;;;32.73;16.90;;;;;;;4.80;60.03;101646.73;1758313;81;21226;-57
2021/03/03 02:42:55;;;;;;;33.70;16.07;;;;;;;4.78;59.96;101643.19;1758189;81;21304;-63
2021/03/03 02:45:25;;;;;;;34.05;17.20;;;;;;;4.73;60.10;101637.84;1753217;81;21127;-58
2021/03/03 02:47:53;;;;;;;30.83;15.77;;;;;;;4.72;60.19;101644.76;1752964;82;21563;-57
2021/03/03 02:50:21;;;;;;;34.80;18.32;;;;;;;4.69;60.32;101647.70;1719282;82;21404;-58
2021/03/03 02:52:54;;;;;;;34.40;17.60;;;;;;;4.66;60.36;101647.59;1729956;82;21186;-57
2021/03/03 02:55:24;;;;;;;29.10;14.83;;;;;;;4.56;60.48;101650.33;1742245;82;21181;-62
2021/03/03 02:57:56;;;;;;;32.30;16.60;;;;;;;4.66;60.30;101660.20;1726423;82;21446;-58
2021/03/03 03:00:28;;;;;;;33.25;17.45;;;;;;;4.68;60.23;101659.84;1713360;84;21163;-63
2021/03/03 03:03:28;;;;;;;32.63;16.23;;;;;;;4.67;60.21;101663.72;1737174;81;21120;-57
2021/03/03 03:06:22;;;;;;;31.60;16.37;;;;;;;4.64;60.25;101667.09;1731392;83;21632;-63
2021/03/03 03:09:15;;;;;;;32.05;16.37;;;;;;;4.62;60.25;101670.09;1721985;83;21261;-57
2021/03/03 03:12:01;;;;;;;31.82;16.40;;;;;;;4.56;60.33;101671.19;1784876;80;21578;-62
2021/03/03 03:14:47;;;;;;;31.68;15.78;;;;;;;4.57;60.20;101667.31;1753478;82;21585;-57
2021/03/03 03:17:15;;;;;;;27.93;14.95;;;;;;;4.46;60.48;101677.80;1679329;85;21162;-57
2021/03/03 03:19:44;;;;;;;34.05;17.05;;;;;;;4.46;60.49;101677.80;1758823;80;21142;-63
2021/03/03 03:22:14;;;;;;;32.15;17.12;;;;;;;4.36;60.63;101687.03;1756155;82;21154;-63
2021/03/03 03:24:42;;;;;;;28.98;14.85;;;;;;;4.41;60.59;101689.82;1756244;81;21122;-57
2021/03/03 03:27:11;;;;;;;35.23;15.78;;;;;;;4.33;60.64;101693.45;1768643;80;21163;-57
2021/03/03 03:29:39;;;;;;;31.57;16.65;;;;;;;4.29;60.77;101690.26;1754969;80;21106;-57
2021/03/03 03:32:08;;;;;;;35.57;16.80;;;;;;;4.28;60.78;101695.00;1783209;80;21162;-63
2021/03/03 03:34:36;;;;;;;32.05;15.53;;;;;;;4.29;60.64;101697.68;1785174;80;21320;-57
2021/03/03 03:37:05;;;;;;;29.87;16.20;;;;;;;4.27;60.74;101696.73;1756106;82;21127;-57
2021/03/03 03:39:35;;;;;;;32.88;17.25;;;;;;;4.31;60.60;101699.02;1751571;81;21146;-63
2021/03/03 03:42:03;;;;;;;32.78;15.83;;;;;;;4.31;60.57;101700.33;1779550;81;21159;-57
2021/03/03 03:44:31;;;;;;;32.95;16.42;;;;;;;4.23;60.81;101701.77;1779902;80;21201;-57
2021/03/03 03:46:59;;;;;;;32.03;16.62;;;;;;;4.22;60.86;101707.81;1762957;80;21106;-63
2021/03/03 03:49:27;;;;;;;35.10;16.50;;;;;;;4.22;60.80;101706.52;1785697;80;21178;-63
2021/03/03 03:51:54;;;;;;;29.42;14.80;;;;;;;4.21;60.87;101697.82;1787458;80;21166;-62
2021/03/03 03:54:22;;;;;;;26.42;14.83;;;;;;;4.13;60.95;101706.69;1773337;80;21316;-57
2021/03/03 03:56:49;;;;;;;30.82;15.50;;;;;;;4.22;60.85;101708.72;1769837;80;21143;-57
2021/03/03 03:59:16;;;;;;;29.18;15.45;;;;;;;4.25;60.70;101707.92;1787280;80;21151;-57
2021/03/03 04:01:44;;;;;;;29.42;15.80;;;;;;;4.25;60.70;101706.62;1720313;83;21224;-57
2021/03/03 04:04:12;;;;;;;29.25;14.90;;;;;;;4.24;60.66;101710.06;1780785;80;21158;-57
2021/03/03 04:06:40;;;;;;;30.65;15.80;;;;;;;4.27;60.51;101721.90;1774518;80;21180;-62
2021/03/03 04:09:07;;;;;;;28.60;14.87;;;;;;;4.24;60.44;101714.87;1770595;80;21143;-57
2021/03/03 04:11:35;;;;;;;29.12;15.15;;;;;;;4.27;60.42;101711.47;1747607;82;21170;-57
2021/03/03 04:14:09;;;;;;;29.05;16.32;;;;;;;4.21;60.57;101713.45;1728658;82;21135;-56
2021/03/03 04:16:34;;;;;;;27.95;14.07;;;;;;;4.15;60.67;101712.84;1721404;82;21162;-62
2021/03/03 04:19:02;;;;;;;30.10;14.40;;;;;;;4.16;60.60;101720.22;1717788;83;21152;-63
2021/03/03 04:21:30;;;;;;;27.52;14.58;;;;;;;4.14;60.73;101719.28;1682691;85;21223;-57
2021/03/03 04:23:57;;;;;;;30.80;15.60;;;;;;;4.14;60.70;101722.79;1667216;85;21193;-57
2021/03/03 04:26:25;;;;;;;28.77;15.10;;;;;;;4.12;60.80;101724.85;1654555;87;21191;-57
2021/03/03 04:28:52;;;;;;;31.07;15.48;;;;;;;4.14;60.75;101724.49;1657292;86;21363;-62
2021/03/03 04:31:20;;;;;;;29.57;15.58;;;;;;;3.98;61.13;101727.84;1682784;85;21146;-58
2021/03/03 04:33:48;;;;;;;28.62;14.78;;;;;;;3.97;61.29;101729.09;1679135;85;21190;-63
2021/03/03 04:36:15;;;;;;;30.62;16.12;;;;;;;3.95;61.33;101737.27;1711744;84;21201;-62
2021/03/03 04:38:43;;;;;;;29.63;14.87;;;;;;;4.04;61.18;101738.02;1739676;82;21159;-56
2021/03/03 04:41:10;;;;;;;34.83;15.38;;;;;;;4.04;61.41;101735.02;1737418;80;21187;-63
2021/03/03 04:43:38;;;;;;;33.58;15.43;;;;;;;4.00;61.43;101739.63;1746684;82;21186;-57
2021/03/03 04:46:05;;;;;;;42.10;20.70;;;;;;;4.05;61.48;101743.70;1747067;82;21156;-63
2021/03/03 04:48:33;;;;;;;52.55;25.97;;;;;;;4.08;61.32;101752.93;1747254;82;21187;-62
2021/03/03 04:51:01;;;;;;;57.17;26.02;;;;;;;4.09;61.34;101742.98;1744602;82;21186;-63
2021/03/03 04:53:28;;;;;;;40.43;20.40;;;;;;;4.07;61.37;101748.55;1717756;83;21149;-63
2021/03/03 04:55:56;;;;;;;35.48;17.57;;;;;;;4.07;61.54;101757.67;1683281;85;21171;-63
2021/03/03 04:58:23;;;;;;;37.05;17.82;;;;;;;4.09;61.48;101766.03;1657109;86;21326;-55
2021/03/03 05:00:51;;;;;;;28.00;14.33;;;;;;;4.08;61.45;101767.27;1673428;85;21228;-63
2021/03/03 05:03:20;;;;;;;31.93;16.15;;;;;;;4.13;61.60;101767.92;1684422;85;21151;-63
2021/03/03 05:05:48;;;;;;;26.97;14.00;;;;;;;4.12;61.56;101769.16;1693983;84;21160;-63
2021/03/03 05:08:15;;;;;;;26.95;14.47;;;;;;;4.16;61.58;101773.25;1693333;84;21127;-63
2021/03/03 05:10:43;;;;;;;27.70;14.68;;;;;;;4.16;61.68;101778.86;1721876;83;21164;-63
2021/03/03 05:13:16;;;;;;;27.45;14.10;;;;;;;4.21;61.64;101781.63;1722094;83;21155;-64
2021/03/03 05:15:44;;;;;;;28.38;13.65;;;;;;;4.26;61.69;101784.89;1725770;83;21182;-63
2021/03/03 05:18:11;;;;;;;31.87;14.63;;;;;;;4.28;61.76;101776.70;1718980;83;21178;-63
2021/03/03 05:20:39;;;;;;;26.87;14.85;;;;;;;4.31;61.76;101789.86;1739823;80;21164;-58
2021/03/03 05:23:07;;;;;;;30.65;13.50;;;;;;;4.34;61.89;101789.50;1772656;80;21131;-63
2021/03/03 05:25:34;;;;;;;27.10;14.60;;;;;;;4.40;61.90;101794.50;1770468;80;21142;-57
2021/03/03 05:28:02;;;;;;;27.35;14.45;;;;;;;4.46;62.01;101792.12;1769934;80;21131;-63
2021/03/03 05:30:30;;;;;;;31.60;15.18;;;;;;;4.55;61.87;101791.55;1774101;80;21142;-63
2021/03/03 05:32:58;;;;;;;25.45;13.60;;;;;;;4.64;61.79;101794.02;1771782;80;21134;-63
2021/03/03 05:35:25;;;;;;;28.92;14.23;;;;;;;4.70;61.70;101791.19;1771483;80;21263;-58
2021/03/03 05:37:53;;;;;;;24.92;13.40;;;;;;;4.82;61.67;101797.67;1768012;80;21142;-59
2021/03/03 05:40:21;;;;;;;28.73;15.05;;;;;;;4.93;61.46;101805.45;1768949;80;21159;-62
2021/03/03 05:42:49;;;;;;;22.40;13.18;;;;;;;5.04;61.35;101805.41;1768709;80;21281;-62
2021/03/03 05:45:17;;;;;;;29.80;13.83;;;;;;;5.03;61.36;101806.23;1781806;79;21268;-57
2021/03/03 05:47:46;;;;;;;26.35;13.98;;;;;;;5.17;61.26;101812.31;1770832;79;21127;-58
2021/03/03 05:50:16;;;;;;;28.77;15.32;;;;;;;5.25;61.07;101814.77;1759032;80;21192;-58
2021/03/03 05:52:43;;;;;;;24.80;13.28;;;;;;;5.39;60.78;101815.64;1756314;82;21278;-63
2021/03/03 05:55:13;;;;;;;26.17;13.40;;;;;;;5.34;60.67;101818.08;1719740;82;21217;-58
2021/03/03 05:57:40;;;;;;;23.63;12.00;;;;;;;5.39;60.94;101825.65;1705461;83;21609;-63
2021/03/03 06:00:11;;;;;;;26.50;13.30;;;;;;;5.51;60.83;101830.41;1683475;84;21417;-63
2021/03/03 06:02:39;;;;;;;25.97;14.13;;;;;;;5.64;60.62;101831.67;1688077;83;21155;-64
2021/03/03 06:05:09;;;;;;;30.08;14.20;;;;;;;5.65;60.78;101830.83;1666576;85;21187;-63
2021/03/03 06:07:37;;;;;;;32.55;16.35;;;;;;;5.75;60.70;101833.30;1662701;85;21169;-61
2021/03/03 06:10:07;;;;;;;24.25;12.88;;;;;;;5.84;60.52;101831.38;1685789;85;21616;-58
2021/03/03 06:12:34;;;;;;;20.95;11.30;;;;;;;5.96;60.35;101830.02;1750126;81;21126;-63
2021/03/03 06:15:03;;;;;;;25.75;12.82;;;;;;;6.07;59.59;101836.03;1759510;80;21168;-58
2021/03/03 06:17:31;;;;;;;27.15;14.40;;;;;;;6.22;59.77;101836.49;1761846;81;21179;-59
2021/03/03 06:19:59;;;;;;;25.05;13.15;;;;;;;6.32;59.69;101837.64;1767622;81;21118;-63
2021/03/03 06:22:28;;;;;;;24.57;12.60;;;;;;;6.35;59.66;101838.16;1744548;81;21578;-58
2021/03/03 06:24:57;;;;;;;25.35;14.20;;;;;;;6.48;59.32;101839.39;1769725;81;21134;-63
2021/03/03 06:27:25;;;;;;;23.35;12.53;;;;;;;6.56;59.23;101840.50;1765098;81;21163;-62
2021/03/03 06:30:11;;;;;;;25.40;12.28;;;;;;;6.60;59.00;101843.66;1746721;82;21156;-58
2021/03/03 06:32:58;;;;;;;22.20;12.05;;;;;;;6.70;59.28;101836.94;1749478;81;21328;-59
2021/03/03 06:35:44;;;;;;;22.62;11.40;;;;;;;6.90;58.80;101841.80;1760681;80;21099;-59
2021/03/03 06:38:14;;;;;;;28.27;13.72;;;;;;;6.94;58.77;101844.97;1764749;81;21134;-63
2021/03/03 06:40:57;;;;;;;21.80;11.20;;;;;;;7.02;58.64;101849.12;1764114;81;21159;-62
2021/03/03 06:43:29;;;;;;;21.95;12.45;;;;;;;7.06;58.45;101853.16;1775344;80;21567;-62
2021/03/03 06:45:59;;;;;;;20.43;11.55;;;;;;;7.13;58.54;101848.95;1765795;81;21120;-58
2021/03/03 06:48:40;;;;;;;20.50;10.93;;;;;;;7.34;58.02;101845.11;1760191;81;21167;-63
2021/03/03 06:51:27;;;;;;;21.02;12.23;;;;;;;7.47;57.62;101843.27;1751078;81;21348;-63
2021/03/03 06:54:03;;;;;;;21.73;11.70;;;;;;;7.64;57.48;101844.06;1769413;80;21143;-63
2021/03/03 06:56:38;;;;;;;19.40;10.72;;;;;;;7.70;56.88;101846.83;1769875;80;21144;-64
2021/03/03 06:59:24;;;;;;;20.80;11.73;;;;;;;7.66;57.45;101847.20;1776177;80;21114;-62
2021/03/03 07:01:54;;;;;;;21.12;10.85;;;;;;;7.74;57.59;101837.75;1765122;81;21540;-59
2021/03/03 07:04:29;;;;;;;20.52;11.30;;;;;;;7.87;57.16;101843.28;1763610;80;22250;-59
2021/03/03 07:07:03;;;;;;;22.42;11.05;;;;;;;8.02;56.57;101844.04;1770123;81;21131;-59
2021/03/03 07:09:46;;;;;;;20.15;10.63;;;;;;;8.25;56.74;101851.09;1767321;80;21175;-64
2021/03/03 07:12:20;;;;;;;22.87;11.12;;;;;;;8.36;57.11;101850.02;1751173;80;21107;-60
2021/03/03 07:14:59;;;;;;;19.12;10.38;;;;;;;8.49;56.66;101849.88;1722878;82;21579;-60
2021/03/03 07:17:41;;;;;;;20.27;10.88;;;;;;;8.67;56.48;101852.38;1695348;84;21151;-63
2021/03/03 07:20:11;;;;;;;21.02;11.00;;;;;;;8.80;55.83;101853.08;1712054;84;21201;-63
2021/03/03 07:22:47;;;;;;;20.27;11.45;;;;;;;9.00;55.66;101860.45;1696239;84;21135;-63
2021/03/03 07:25:17;;;;;;;16.40;9.58;;;;;;;9.09;54.76;101860.59;1695827;84;21165;-59
2021/03/03 07:27:46;;;;;;;17.15;9.80;;;;;;;9.27;54.18;101854.80;1697109;84;21144;-63
2021/03/03 07:30:23;;;;;;;15.53;8.65;;;;;;;9.38;54.15;101853.66;1688033;84;21159;-64
2021/03/03 07:32:52;;;;;;;16.15;9.13;;;;;;;9.45;53.47;101850.27;1690824;83;21156;-62
2021/03/03 07:35:21;;;;;;;16.77;9.73;;;;;;;9.59;53.06;101850.89;1664852;85;21200;-59
2021/03/03 07:37:53;;;;;;;16.48;9.48;;;;;;;9.59;53.09;101850.89;1660072;85;21194;-59
2021/03/03 07:40:27;;;;;;;17.60;9.25;;;;;;;9.79;53.00;101853.82;1684392;84;21193;-59
2021/03/03 07:42:56;;;;;;;15.35;9.10;;;;;;;9.96;53.51;101843.53;1666582;85;21199;-59
2021/03/03 07:45:40;;;;;;;16.37;8.78;;;;;;;10.32;53.05;101847.95;1682326;85;21196;-63
2021/03/03 07:48:11;;;;;;;15.88;9.35;;;;;;;10.60;52.05;101842.61;1686174;85;21451;-60
2021/03/03 07:50:40;;;;;;;14.63;8.68;;;;;;;10.70;51.71;101844.91;1672809;84;21147;-59
2021/03/03 07:53:09;;;;;;;13.50;7.62;;;;;;;10.80;51.11;101838.01;1679130;85;21191;-62
2021/03/03 07:55:37;;;;;;;18.10;9.13;;;;;;;10.84;50.87;101843.31;1718883;83;21216;-64
2021/03/03 07:58:06;;;;;;;17.75;9.18;;;;;;;10.92;50.75;101848.64;1664660;85;21159;-60
2021/03/03 08:00:37;;;;;;;12.82;8.10;;;;;;;11.04;51.04;101843.05;1697427;83;21193;-63
2021/03/03 08:03:06;;;;;;;13.93;8.38;;;;;;;11.06;50.54;101847.90;1667974;84;21154;-64
2021/03/03 08:05:38;;;;;;;13.57;7.80;;;;;;;11.20;49.94;101852.88;1663435;85;21213;-59
2021/03/03 08:08:12;;;;;;;12.10;7.15;;;;;;;11.30;49.51;101848.09;1685007;84;21575;-60
2021/03/03 08:10:41;;;;;;;14.25;7.97;;;;;;;11.49;48.70;101850.00;1694000;82;21223;-59
2021/03/03 08:13:12;;;;;;;12.10;6.87;;;;;;;11.70;49.47;101846.66;1739701;82;21138;-64
2021/03/03 08:15:44;;;;;;;13.43;7.42;;;;;;;11.77;48.23;101852.84;1745321;82;21344;-59
2021/03/03 08:18:21;;;;;;;13.10;6.80;;;;;;;11.92;48.85;101850.31;1745075;82;21158;-59
2021/03/03 08:20:55;;;;;;;10.70;7.00;;;;;;;12.16;48.29;101850.87;1744717;82;21171;-63
2021/03/03 08:23:45;;;;;;;12.25;7.65;;;;;;;12.33;47.82;101846.12;1732709;82;21172;-59
2021/03/03 08:26:21;;;;;;;12.27;7.47;;;;;;;12.54;48.04;101845.77;1700275;84;21308;-60
2021/03/03 08:28:50;;;;;;;13.62;8.00;;;;;;;12.67;47.36;101835.66;1695983;84;22003;-63
2021/03/03 08:31:24;;;;;;;11.83;7.33;;;;;;;12.87;46.43;101849.36;1740805;82;21172;-64
2021/03/03 08:33:56;;;;;;;12.73;7.37;;;;;;;12.91;46.42;101850.67;1698191;84;21633;-64
2021/03/03 08:36:34;;;;;;;13.25;7.75;;;;;;;12.94;46.47;101844.07;1729704;82;21302;-64
2021/03/03 08:39:10;;;;;;;35.75;8.50;;;;;;;13.04;45.98;101845.41;1744228;81;21152;-63
2021/03/03 08:41:39;;;;;;;11.53;6.85;;;;;;;13.11;45.65;101849.83;1742430;82;21183;-64
2021/03/03 08:44:14;;;;;;;13.10;7.28;;;;;;;13.22;45.11;101841.47;1741806;82;21158;-64
2021/03/03 08:46:48;;;;;;;13.58;7.72;;;;;;;13.35;45.47;101842.34;1716391;82;21297;-64
2021/03/03 08:49:23;;;;;;;15.35;7.78;;;;;;;13.58;44.59;101848.52;1715921;84;21669;-60
2021/03/03 08:51:50;;;;;;;12.90;7.28;;;;;;;13.56;45.17;101846.32;1738240;82;21131;-64
2021/03/03 08:54:20;;;;;;;11.88;7.67;;;;;;;13.61;44.85;101849.39;1707379;82;21174;-60
2021/03/03 08:56:52;;;;;;;12.07;6.62;;;;;;;13.73;44.52;101848.48;1742889;81;21119;-60
2021/03/03 08:59:42;;;;;;;11.18;6.60;;;;;;;13.76;42.90;101847.61;1745500;82;21116;-64
2021/03/03 09:02:15;;;;;;;10.78;6.12;;;;;;;13.62;41.64;101843.67;1742710;82;21260;-64
2021/03/03 09:04:51;;;;;;;10.72;5.95;;;;;;;13.57;42.16;101845.44;1743804;81;21107;-64
2021/03/03 09:07:22;;;;;;;11.48;6.90;;;;;;;13.67;42.40;101848.06;1735068;82;21705;-64
2021/03/03 09:09:56;;;;;;;10.35;6.65;;;;;;;13.80;42.34;101847.59;1741246;82;21175;-60
2021/03/03 09:12:32;;;;;;;9.08;5.58;;;;;;;14.03;42.35;101851.06;1741835;82;21158;-64
2021/03/03 09:15:01;;;;;;;9.68;6.00;;;;;;;14.09;42.66;101849.30;1777566;80;21598;-60
2021/03/03 09:17:34;;;;;;;9.85;5.67;;;;;;;14.28;41.78;101854.08;1772076;80;21138;-60
2021/03/03 09:20:20;;;;;;;11.97;6.10;;;;;;;14.32;39.59;101852.73;1756360;81;21159;-60
2021/03/03 09:22:48;;;;;;;9.03;5.55;;;;;;;14.37;40.49;101853.14;1785206;80;21563;-64
2021/03/03 09:25:24;;;;;;;10.20;5.97;;;;;;;14.57;40.93;101853.04;1707100;82;21192;-63
2021/03/03 09:27:56;;;;;;;9.78;6.05;;;;;;;14.83;40.95;101850.70;1769589;80;21170;-60
2021/03/03 09:30:26;;;;;;;10.18;6.28;;;;;;;14.61;39.30;101853.89;1770214;80;21147;-64
2021/03/03 09:32:54;;;;;;;11.40;6.72;;;;;;;14.46;39.86;101858.83;1764511;80;21131;-64
2021/03/03 09:35:29;;;;;;;9.38;6.08;;;;;;;14.41;40.14;101859.29;1787162;80;21167;-64
2021/03/03 09:37:57;;;;;;;12.68;6.03;;;;;;;14.52;40.04;101857.94;1785398;80;21305;-60
2021/03/03 09:40:32;;;;;;;9.30;5.80;;;;;;;14.64;39.00;101852.55;1776758;80;21159;-64
2021/03/03 09:43:00;;;;;;;9.50;6.15;;;;;;;14.65;39.02;101852.12;1742248;82;21166;-60
2021/03/03 09:45:28;;;;;;;10.58;6.47;;;;;;;14.89;41.25;101844.92;1722307;83;21178;-60
2021/03/03 09:47:56;;;;;;;13.32;7.08;;;;;;;15.12;39.59;101846.98;1753000;82;21305;-65
2021/03/03 09:50:28;;;;;;;10.13;6.03;;;;;;;15.25;38.05;101842.45;1739113;82;21590;-64
2021/03/03 09:52:58;;;;;;;9.33;6.05;;;;;;;15.06;37.74;101844.80;1769974;80;21139;-60
2021/03/03 09:55:29;;;;;;;;;;;;;;;15.19;37.92;101849.59;1758494;82;21281;-64
2021/03/03 09:57:58;;;;;;;8.18;5.53;;;;;;;15.37;37.96;101846.76;1756281;81;20223;-64
2021/03/03 10:00:28;;;;;;;10.68;6.53;;;;;;;15.31;37.10;101845.05;1780670;80;21180;-61
2021/03/03 10:03:04;;;;;;;12.35;7.85;;;;;;;15.32;37.65;101836.63;1780260;80;21264;-60
2021/03/03 10:05:34;;;;;;;8.85;5.50;;;;;;;15.65;37.76;101835.91;1754575;82;21143;-60
2021/03/03 10:08:15;;;;;;;12.25;7.05;;;;;;;15.78;35.70;101831.77;1760879;80;21138;-61
2021/03/03 10:10:47;;;;;;;8.48;5.53;;;;;;;15.75;36.74;101836.67;1787240;80;21142;-64
2021/03/03 10:13:24;;;;;;;6.75;4.33;;;;;;;15.60;37.20;101827.10;1729644;82;21140;-60
2021/03/03 10:15:54;;;;;;;8.60;4.55;;;;;;;15.49;35.76;101836.94;1677697;85;21185;-64
2021/03/03 10:18:22;;;;;;;7.10;4.12;;;;;;;15.46;35.96;101827.21;1716024;82;21297;-64
2021/03/03 10:20:55;;;;;;;6.87;3.60;;;;;;;15.59;35.19;101830.19;1759745;81;21152;-64
2021/03/03 10:23:26;;;;;;;10.18;4.30;;;;;;;15.62;33.51;101826.64;1707923;82;21152;-59
2021/03/03 10:43:13;;;;;;;4.40;2.65;;;;;;;15.11;34.11;101809.42;1828582;77;22259;-59
2021/03/03 10:45:44;;;;;;;4.50;2.20;;;;;;;15.11;33.88;101812.07;1788937;78;21211;-64
2021/03/03 10:48:31;;;;;;;2.27;1.12;;;;;;;14.93;31.41;101809.55;1792230;80;21185;-64
2021/03/03 10:51:01;;;;;;;4.62;2.83;;;;;;;14.91;31.17;101810.01;1777482;80;21742;-59
2021/03/03 10:53:54;;;;;;;5.30;2.67;;;;;;;15.13;33.12;101808.06;1798091;79;21145;-60
2021/03/03 10:56:28;;;;;;;3.95;2.50;;;;;;;15.81;31.25;101802.53;1770692;79;21600;-59
2021/03/03 10:59:04;;;;;;;4.25;2.40;;;;;;;15.91;31.21;101802.44;1788521;80;21178;-60
2021/03/03 11:01:53;;;;;;;4.90;2.20;;;;;;;15.94;32.13;101797.98;1791059;80;21171;-62
2021/03/03 11:04:20;;;;;;;6.70;3.17;;;;;;;16.34;32.58;101796.14;1763825;80;21552;-59
2021/03/03 11:06:47;;;;;;;4.53;2.25;;;;;;;16.66;32.23;101790.83;1729987;80;21284;-63
2021/03/03 11:09:18;;;;;;;7.22;3.05;;;;;;;16.82;31.26;101792.80;1778367;80;21110;-63
2021/03/03 11:11:55;;;;;;;3.95;2.20;;;;;;;17.00;31.10;101781.48;1780110;80;21149;-62
2021/03/03 11:14:27;;;;;;;5.92;3.00;;;;;;;17.19;30.47;101778.91;1779468;80;21541;-64
2021/03/03 11:16:57;;;;;;;7.17;2.70;;;;;;;17.25;29.93;101780.57;1745888;81;21173;-59
2021/03/03 11:19:25;;;;;;;4.00;2.33;;;;;;;17.22;31.14;101774.00;1773628;80;21176;-59
2021/03/03 11:21:53;;;;;;;4.15;2.27;;;;;;;17.45;29.77;101772.22;1798164;80;21216;-60
2021/03/03 11:24:22;;;;;;;4.95;3.00;;;;;;;17.63;29.59;101769.69;1796978;79;21130;-59
2021/03/03 11:26:50;;;;;;;4.62;2.50;;;;;;;17.65;30.56;101765.21;1784714;80;21203;-63
2021/03/03 11:29:17;;;;;;;6.50;3.17;;;;;;;17.73;30.26;101761.48;1781250;80;21287;-60
2021/03/03 11:31:45;;;;;;;5.25;3.30;;;;;;;17.83;30.85;101762.63;1790378;80;21134;-64
2021/03/03 11:34:13;;;;;;;5.08;2.85;;;;;;;17.98;31.88;101760.09;1789608;80;21527;-60
2021/03/03 11:36:41;;;;;;;4.90;2.60;;;;;;;18.23;30.55;101759.57;1789568;80;21244;-59
2021/03/03 11:39:10;;;;;;;5.75;2.65;;;;;;;18.20;27.30;101757.44;1776756;79;21112;-61
2021/03/03 11:41:38;;;;;;;4.00;2.70;;;;;;;18.14;29.58;101753.11;1795313;79;21276;-59
2021/03/03 11:44:07;;;;;;;5.15;3.00;;;;;;;18.16;28.71;101751.28;1797164;79;21142;-59
2021/03/03 11:46:34;;;;;;;4.90;2.65;;;;;;;18.16;28.57;101750.42;1795530;79;21147;-64
2021/03/03 11:49:04;;;;;;;5.08;2.83;;;;;;;18.06;28.15;101757.28;1789726;79;21145;-64
2021/03/03 11:51:32;;;;;;;5.00;3.42;;;;;;;17.90;28.51;101765.13;1786100;80;21137;-60
2021/03/03 11:54:02;;;;;;;43.13;25.68;;;;;;;17.71;28.13;101767.30;1786813;80;21138;-59